Goianinha, Brazil
Current Conditions -  °F | °C
As of 7:00 AM on Sunday 25 Jan 2015 (Local Time) from SBNT Reporting Station
Few Clouds Few Clouds  
Wind Chill: 81°   Ceiling: Unl
Heat Index: 84°   Visibility: 6mi
Dew Point: 70°   Wind: 13mph
Humidity: 70%   Direction: 110°ESE
Pressure: 29.91"   Gusts: NA
Location:  6.26°S, 35.21°W
Report Text: SBNT 251000Z 11011KT 9999 FEW021 27/21 Q1013
Loading
Personal Weather Stations






























Interactive Weather Map New forecast layout! Learn more

10-Day Weather Forecast

Advertisements
Track Severe Weather on mobile